Meteorología y climatología de Navarra
Datos de la estación - Meteo Navarra

Estación de Sartaguda GN

Altitud 310 m.


Datos desde el 11/01/2019 hasta el 12/01/2019 en horario solar
Los datos son PROVISIONALES

Anterior Página 1 de 1 Siguiente Descargar: Formato para Excel 2000 o superior   Formato csv   Formato para OpenOffice Calc
Fecha Temperatura Humedad relativa Radiación global Insolación Precipitación Vel. viento 10 m Vel. viento 10 m Dir. viento 10 m
ºC % W/m² s l/m² m/s km/h º
11/01/2019 0:00 2.2 65 0.0 0 0.0 4.4 15.7 323
11/01/2019 0:10 2.2 65 0.0 0 0.0 4.2 15.2 319
11/01/2019 0:20 2.4 66 0.0 0 0.0 3.9 14.0 314
11/01/2019 0:30 2.3 66 0.0 0 0.0 3.2 11.5 319
11/01/2019 0:40 2.2 67 0.0 0 0.0 2.2 8.0 324
11/01/2019 0:50 2.1 67 0.0 0 0.0 2.4 8.5 314
11/01/2019 1:00 2.1 66 0.0 0 0.0 1.8 6.4 314
11/01/2019 1:10 2.0 67 0.0 0 0.0 1.8 6.4 322
11/01/2019 1:20 1.9 67 0.0 0 0.0 2.1 7.5 316
11/01/2019 1:30 1.9 67 0.0 0 0.0 2.3 8.2 330
11/01/2019 1:40 1.6 68 0.0 0 0.0 2.2 7.8 336
11/01/2019 1:50 1.6 69 0.0 0 0.0 2.9 10.3 329
11/01/2019 2:00 1.8 68 0.0 0 0.0 3.3 11.8 337
11/01/2019 2:10 1.7 68 0.0 0 0.0 3.4 12.1 345
11/01/2019 2:20 1.8 69 0.0 0 0.0 3.6 12.9 334
11/01/2019 2:30 1.9 68 0.0 0 0.0 3.9 14.1 329
11/01/2019 2:40 1.9 68 0.0 0 0.0 3.8 13.5 337
11/01/2019 2:50 1.9 68 0.0 0 0.0 4.5 16.3 337
11/01/2019 3:00 1.9 68 0.0 0 0.0 5.1 18.4 336
11/01/2019 3:10 1.8 68 0.0 0 0.0 4.6 16.4 337
11/01/2019 3:20 1.7 67 0.0 0 0.0 3.4 12.1 330
11/01/2019 3:30 1.3 68 0.0 0 0.0 1.6 5.8 286
11/01/2019 3:40 0.9 71 0.0 0 0.0 1.6 5.9 302
11/01/2019 3:50 0.8 71 0.0 0 0.0 2.9 10.5 285
11/01/2019 4:00 0.9 69 0.0 0 0.0 2.6 9.5 291
11/01/2019 4:10 1.1 68 0.0 0 0.0 3.3 12.0 289
11/01/2019 4:20 1.2 67 0.0 0 0.0 3.2 11.6 301
11/01/2019 4:30 1.3 66 0.0 0 0.0 3.8 13.5 311
11/01/2019 4:40 1.4 66 0.0 0 0.0 3.8 13.7 309
11/01/2019 4:50 1.4 66 0.0 0 0.0 3.3 11.8 306
11/01/2019 5:00 1.3 66 0.0 0 0.0 2.6 9.4 301
11/01/2019 5:10 1.4 66 0.0 0 0.0 3.1 11.3 301
11/01/2019 5:20 1.6 65 0.0 0 0.0 3.5 12.6 294
11/01/2019 5:30 1.6 65 0.0 0 0.0 3.5 12.5 300
11/01/2019 5:40 1.7 65 0.0 0 0.0 3.7 13.3 297
11/01/2019 5:50 1.8 64 0.0 0 0.0 3.7 13.1 296
11/01/2019 6:00 2.0 63 0.0 0 0.0 4.0 14.4 298
11/01/2019 6:10 1.9 63 0.0 0 0.0 3.5 12.5 300
11/01/2019 6:20 1.8 63 0.0 0 0.0 3.5 12.7 294
11/01/2019 6:30 1.8 64 0.0 0 0.0 3.8 13.6 299
11/01/2019 6:40 1.8 64 0.0 0 0.0 3.9 14.0 293
11/01/2019 6:50 1.8 64 0.0 0 0.0 3.7 13.2 298
11/01/2019 7:00 1.8 64 0.0 0 0.0 3.7 13.2 302
11/01/2019 7:10 1.8 63 0.0 0 0.0 3.6 12.9 303
11/01/2019 7:20 1.8 64 0.0 0 0.0 3.3 11.9 299
11/01/2019 7:30 1.8 64 0.0 0 0.0 3.2 11.5 308
11/01/2019 7:40 1.9 64 0.0 0 0.0 2.5 9.1 321
11/01/2019 7:50 1.8 64 11.8 0 0.0 3.1 11.1 309
11/01/2019 8:00 1.9 64 30.1 302 0.0 3.2 11.4 306
11/01/2019 8:10 2.2 62 50.7 600 0.0 3.6 12.8 300
11/01/2019 8:20 2.4 62 61.5 538 0.0 4.2 15.0 302
11/01/2019 8:30 2.6 60 85.8 512 0.0 3.9 14.1 302
11/01/2019 8:40 3.0 59 120.4 600 0.0 4.2 15.0 296
11/01/2019 8:50 3.3 58 146.4 600 0.0 3.9 14.1 299
11/01/2019 9:00 3.6 57 168.4 600 0.0 4.3 15.3 299
11/01/2019 9:10 3.8 56 197.2 600 0.0 4.6 16.6 296
11/01/2019 9:20 4.1 55 217.9 600 0.0 4.4 15.9 296
11/01/2019 9:30 4.3 54 242.3 600 0.0 4.7 16.8 291
11/01/2019 9:40 4.5 54 275.5 600 0.0 4.4 15.9 294
11/01/2019 9:50 4.8 53 297.5 600 0.0 5.3 19.1 290
11/01/2019 10:00 4.8 52 318.1 600 0.0 4.6 16.6 295
11/01/2019 10:10 5.2 51 348.3 600 0.0 4.8 17.2 288
11/01/2019 10:20 5.3 51 386.1 600 0.0 5.2 18.6 287
11/01/2019 10:30 5.5 49 402.9 600 0.0 5.1 18.3 295
11/01/2019 10:40 5.7 48 422.7 600 0.0 4.8 17.3 300
11/01/2019 10:50 5.9 48 439.4 600 0.0 5.5 19.6 302
11/01/2019 11:00 6.2 47 461.8 600 0.0 4.6 16.7 295
11/01/2019 11:10 6.3 46 473.5 600 0.0 5.6 20.0 312
11/01/2019 11:20 6.4 45 473.7 600 0.0 5.5 19.7 317
11/01/2019 11:30 6.7 43 446.2 592 0.0 5.6 20.2 334
11/01/2019 11:40 6.7 42 404.5 504 0.0 5.6 20.3 326
11/01/2019 11:50 6.4 42 153.3 110 0.0 6.1 22.0 332
11/01/2019 12:00 6.5 42 442.8 574 0.0 5.9 21.3 333
11/01/2019 12:10 6.9 41 465.9 600 0.0 6.5 23.5 330
11/01/2019 12:20 7.0 41 472.8 600 0.0 7.0 25.2 322
11/01/2019 12:30 7.1 41 466.4 600 0.0 6.1 21.8 334
11/01/2019 12:40 7.2 40 462.8 600 0.0 6.0 21.7 326
11/01/2019 12:50 7.3 39 458.2 600 0.0 6.6 23.7 334
11/01/2019 13:00 7.5 39 452.3 600 0.0 6.6 23.8 342
11/01/2019 13:10 7.5 40 445.6 600 0.0 7.8 28.2 336
11/01/2019 13:20 7.5 42 435.9 600 0.0 7.1 25.6 334
11/01/2019 13:30 7.6 43 424.4 600 0.0 6.4 22.9 331
11/01/2019 13:40 7.7 44 413.4 600 0.0 6.9 24.9 329
11/01/2019 13:50 7.6 44 400.3 600 0.0 7.0 25.2 324
11/01/2019 14:00 7.6 45 386.7 600 0.0 7.0 25.1 332
11/01/2019 14:10 7.6 45 370.6 600 0.0 7.3 26.4 326
11/01/2019 14:20 7.7 45 353.3 600 0.0 7.1 25.5 336
11/01/2019 14:30 7.6 45 333.5 600 0.0 6.2 22.2 333
11/01/2019 14:40 7.8 45 313.1 600 0.0 6.9 25.0 338
11/01/2019 14:50 7.9 46 293.1 600 0.0 5.4 19.5 336
11/01/2019 15:00 7.9 46 270.4 600 0.0 5.9 21.2 334
11/01/2019 15:10 7.8 47 247.8 600 0.0 6.4 23.0 331
11/01/2019 15:20 7.7 47 222.8 600 0.0 5.6 20.3 332
11/01/2019 15:30 7.6 47 198.2 600 0.0 5.4 19.3 333
11/01/2019 15:40 7.6 47 173.1 600 0.0 6.5 23.4 335
11/01/2019 15:50 7.4 47 148.4 600 0.0 5.9 21.3 335
11/01/2019 16:00 7.3 47 122.3 600 0.0 5.7 20.6 330
11/01/2019 16:10 7.0 48 98.1 600 0.0 5.9 21.1 338
11/01/2019 16:20 6.8 48 72.6 600 0.0 5.9 21.2 329
11/01/2019 16:30 6.5 49 40.4 316 0.0 5.7 20.4 329
11/01/2019 16:40 6.3 49 19.3 0 0.0 4.9 17.7 328
11/01/2019 16:50 6.1 50 3.2 0 0.0 5.0 17.9 320
11/01/2019 17:00 5.8 51 0.0 0 0.0 4.0 14.4 321
11/01/2019 17:10 5.5 56 0.0 0 0.0 3.3 11.9 314
11/01/2019 17:20 5.2 58 0.0 0 0.0 3.5 12.7 320
11/01/2019 17:30 5.1 59 0.0 0 0.0 3.9 14.0 306
11/01/2019 17:40 5.1 59 0.0 0 0.0 4.2 15.2 311
11/01/2019 17:50 5.1 59 0.0 0 0.0 4.3 15.6 314
11/01/2019 18:00 4.9 60 0.0 0 0.0 4.3 15.6 319
11/01/2019 18:10 4.9 61 0.0 0 0.0 5.2 18.6 324
11/01/2019 18:20 4.7 62 0.0 0 0.0 4.9 17.6 323
11/01/2019 18:30 4.7 63 0.0 0 0.0 4.0 14.3 321
11/01/2019 18:40 4.5 64 0.0 0 0.0 2.9 10.5 310
11/01/2019 18:50 4.2 65 0.0 0 0.0 2.8 10.0 308
11/01/2019 19:00 3.9 67 0.0 0 0.0 3.1 11.1 306
11/01/2019 19:10 3.9 69 0.0 0 0.0 2.9 10.6 299
11/01/2019 19:20 4.1 71 0.0 0 0.0 3.4 12.2 291
11/01/2019 19:30 4.5 71 0.0 0 0.0 3.9 14.0 294
11/01/2019 19:40 4.8 70 0.0 0 0.0 4.1 14.8 295
11/01/2019 19:50 5.0 70 0.0 0 0.0 4.1 14.9 302
11/01/2019 20:00 5.1 71 0.0 0 0.0 4.3 15.6 304
11/01/2019 20:10 5.0 71 0.0 0 0.0 3.9 13.9 306
11/01/2019 20:20 5.1 71 0.0 0 0.0 3.9 14.1 305
11/01/2019 20:30 5.0 71 0.0 0 0.0 4.0 14.4 312
11/01/2019 20:40 5.0 71 0.0 0 0.0 4.1 14.7 312
11/01/2019 20:50 5.0 72 0.0 0 0.0 2.8 10.2 300
11/01/2019 21:00 4.9 72 0.0 0 0.0 3.1 11.2 296
11/01/2019 21:10 4.9 73 0.0 0 0.0 3.5 12.4 295
11/01/2019 21:20 5.0 73 0.0 0 0.0 3.4 12.3 297
11/01/2019 21:30 5.0 73 0.0 0 0.0 3.5 12.7 311
11/01/2019 21:40 5.2 73 0.0 0 0.0 3.4 12.3 308
11/01/2019 21:50 5.1 73 0.0 0 0.0 3.7 13.2 311
11/01/2019 22:00 5.1 73 0.0 0 0.0 2.8 9.9 304
11/01/2019 22:10 5.1 73 0.0 0 0.0 3.1 11.2 308
11/01/2019 22:20 5.2 73 0.0 0 0.0 2.7 9.8 303
11/01/2019 22:30 5.3 73 0.0 0 0.0 2.6 9.4 303
11/01/2019 22:40 5.5 73 0.0 0 0.0 3.0 10.8 304
11/01/2019 22:50 5.6 73 0.0 0 0.0 3.4 12.2 307
11/01/2019 23:00 5.6 73 0.0 0 0.0 3.3 12.0 310
11/01/2019 23:10 5.6 73 0.0 0 0.0 3.5 12.7 304
11/01/2019 23:20 5.7 73 0.0 0 0.0 3.3 11.8 297
11/01/2019 23:30 5.6 73 0.0 0 0.0 3.1 11.0 296
11/01/2019 23:40 5.5 73 0.0 0 0.0 3.1 11.2 291
11/01/2019 23:50 5.5 74 0.0 0 0.0 2.8 10.0 296
Anterior Página 1 de 1 Siguiente

NOTA: Tipo de datos según el color:
   - Valores diarios o 10 minutos correctos
   - Valores diarios calculados a partir de un número de datos 10 minutos menor que 144 y mayor que 120, o de un número de datos semihorarios menor que 48 y mayor que 40 (caso de las estaciones de Riegos de Navarra y del MARM)
   - Valores diez minutos estimados


Contacto        Enlaces        Aviso legal